sensor_id;sensor_type;location;lat;lon;timestamp;temperature;humidity
15556;DHT22;7879;48.660;9.116;2022-09-13T00:01:26;12.60;99.90
15556;DHT22;7879;48.660;9.116;2022-09-13T00:03:53;12.50;99.90
15556;DHT22;7879;48.660;9.116;2022-09-13T00:06:21;12.50;99.90
15556;DHT22;7879;48.660;9.116;2022-09-13T00:08:48;12.50;99.90
15556;DHT22;7879;48.660;9.116;2022-09-13T00:11:21;12.50;99.90
15556;DHT22;7879;48.660;9.116;2022-09-13T00:13:48;12.50;99.90
15556;DHT22;7879;48.660;9.116;2022-09-13T00:16:16;12.40;99.90
15556;DHT22;7879;48.660;9.116;2022-09-13T00:18:43;12.30;99.90
15556;DHT22;7879;48.660;9.116;2022-09-13T00:21:12;12.30;99.90
15556;DHT22;7879;48.660;9.116;2022-09-13T00:23:43;12.30;99.90
15556;DHT22;7879;48.660;9.116;2022-09-13T00:26:29;12.30;99.90
15556;DHT22;7879;48.660;9.116;2022-09-13T00:28:57;12.30;99.90
15556;DHT22;7879;48.660;9.116;2022-09-13T00:31:26;12.30;99.90
15556;DHT22;7879;48.660;9.116;2022-09-13T00:33:54;12.30;99.90
15556;DHT22;7879;48.660;9.116;2022-09-13T00:36:20;12.20;99.90
15556;DHT22;7879;48.660;9.116;2022-09-13T00:38:47;12.20;99.90
15556;DHT22;7879;48.660;9.116;2022-09-13T00:41:17;12.20;99.90
15556;DHT22;7879;48.660;9.116;2022-09-13T00:46:29;12.00;99.90
15556;DHT22;7879;48.660;9.116;2022-09-13T00:51:39;12.00;99.90
15556;DHT22;7879;48.660;9.116;2022-09-13T00:54:06;12.00;99.90
15556;DHT22;7879;48.660;9.116;2022-09-13T00:56:38;12.00;99.90
15556;DHT22;7879;48.660;9.116;2022-09-13T01:00:09;11.90;99.90
15556;DHT22;7879;48.660;9.116;2022-09-13T01:02:04;11.90;99.90
15556;DHT22;7879;48.660;9.116;2022-09-13T01:04:34;11.90;99.90
15556;DHT22;7879;48.660;9.116;2022-09-13T01:07:06;11.90;99.90
15556;DHT22;7879;48.660;9.116;2022-09-13T01:09:37;11.90;99.90
15556;DHT22;7879;48.660;9.116;2022-09-13T01:12:16;11.90;99.90
15556;DHT22;7879;48.660;9.116;2022-09-13T01:14:46;11.80;99.90
15556;DHT22;7879;48.660;9.116;2022-09-13T01:17:13;11.70;99.90
15556;DHT22;7879;48.660;9.116;2022-09-13T01:19:40;11.70;99.90
15556;DHT22;7879;48.660;9.116;2022-09-13T01:23:10;11.80;99.90
15556;DHT22;7879;48.660;9.116;2022-09-13T01:28:17;11.70;99.90
15556;DHT22;7879;48.660;9.116;2022-09-13T01:33:58;11.60;99.90
15556;DHT22;7879;48.660;9.116;2022-09-13T01:39:32;11.60;99.90
15556;DHT22;7879;48.660;9.116;2022-09-13T01:42:40;11.50;99.90
15556;DHT22;7879;48.660;9.116;2022-09-13T01:45:36;11.40;99.90
15556;DHT22;7879;48.660;9.116;2022-09-13T01:48:15;11.40;99.90
15556;DHT22;7879;48.660;9.116;2022-09-13T01:50:46;11.40;99.90
15556;DHT22;7879;48.660;9.116;2022-09-13T01:53:31;11.40;99.90
15556;DHT22;7879;48.660;9.116;2022-09-13T01:56:11;11.40;99.90
15556;DHT22;7879;48.660;9.116;2022-09-13T01:58:45;11.40;99.90
15556;DHT22;7879;48.660;9.116;2022-09-13T02:01:35;11.40;99.90
15556;DHT22;7879;48.660;9.116;2022-09-13T02:04:14;11.30;99.90
15556;DHT22;7879;48.660;9.116;2022-09-13T02:06:47;11.30;99.90
15556;DHT22;7879;48.660;9.116;2022-09-13T02:09:20;11.30;99.90
15556;DHT22;7879;48.660;9.116;2022-09-13T02:11:52;11.30;99.90
15556;DHT22;7879;48.660;9.116;2022-09-13T02:14:29;11.30;99.90
15556;DHT22;7879;48.660;9.116;2022-09-13T02:17:14;11.30;99.90
15556;DHT22;7879;48.660;9.116;2022-09-13T02:19:47;11.20;99.90
15556;DHT22;7879;48.660;9.116;2022-09-13T02:22:19;11.10;99.90
15556;DHT22;7879;48.660;9.116;2022-09-13T02:24:52;11.10;99.90
15556;DHT22;7879;48.660;9.116;2022-09-13T02:27:25;11.10;99.90
15556;DHT22;7879;48.660;9.116;2022-09-13T02:29:59;11.10;99.90
15556;DHT22;7879;48.660;9.116;2022-09-13T02:33:17;11.00;99.90
15556;DHT22;7879;48.660;9.116;2022-09-13T02:38:17;10.90;99.90
15556;DHT22;7879;48.660;9.116;2022-09-13T02:40:52;11.00;99.90
15556;DHT22;7879;48.660;9.116;2022-09-13T02:43:35;10.90;99.90
15556;DHT22;7879;48.660;9.116;2022-09-13T02:48:55;10.90;99.90
15556;DHT22;7879;48.660;9.116;2022-09-13T02:51:46;10.90;99.90
15556;DHT22;7879;48.660;9.116;2022-09-13T02:54:28;10.90;99.90
15556;DHT22;7879;48.660;9.116;2022-09-13T02:57:39;10.90;99.90
15556;DHT22;7879;48.660;9.116;2022-09-13T03:00:08;10.80;99.90
15556;DHT22;7879;48.660;9.116;2022-09-13T03:02:37;10.80;99.90
15556;DHT22;7879;48.660;9.116;2022-09-13T03:05:05;10.90;99.90
15556;DHT22;7879;48.660;9.116;2022-09-13T03:07:32;10.90;99.90
15556;DHT22;7879;48.660;9.116;2022-09-13T03:10:05;10.80;99.90
15556;DHT22;7879;48.660;9.116;2022-09-13T03:12:54;10.70;99.90
15556;DHT22;7879;48.660;9.116;2022-09-13T03:24:28;10.80;99.90
15556;DHT22;7879;48.660;9.116;2022-09-13T03:27:21;10.80;99.90
15556;DHT22;7879;48.660;9.116;2022-09-13T03:30:06;10.80;99.90
15556;DHT22;7879;48.660;9.116;2022-09-13T03:32:49;10.80;99.90
15556;DHT22;7879;48.660;9.116;2022-09-13T03:37:56;10.70;99.90
15556;DHT22;7879;48.660;9.116;2022-09-13T03:41:23;10.70;99.90
15556;DHT22;7879;48.660;9.116;2022-09-13T03:43:30;10.60;99.90
15556;DHT22;7879;48.660;9.116;2022-09-13T03:46:10;10.70;99.90
15556;DHT22;7879;48.660;9.116;2022-09-13T03:48:41;10.60;99.90
15556;DHT22;7879;48.660;9.116;2022-09-13T03:51:09;10.60;99.90
15556;DHT22;7879;48.660;9.116;2022-09-13T03:53:41;10.60;99.90
15556;DHT22;7879;48.660;9.116;2022-09-13T03:56:19;10.70;99.90
15556;DHT22;7879;48.660;9.116;2022-09-13T03:58:46;10.60;99.90
15556;DHT22;7879;48.660;9.116;2022-09-13T04:01:17;10.60;99.90
15556;DHT22;7879;48.660;9.116;2022-09-13T04:03:45;10.50;99.90
15556;DHT22;7879;48.660;9.116;2022-09-13T04:06:12;10.50;99.90
15556;DHT22;7879;48.660;9.116;2022-09-13T04:08:38;10.50;99.90
15556;DHT22;7879;48.660;9.116;2022-09-13T04:11:05;10.50;99.90
15556;DHT22;7879;48.660;9.116;2022-09-13T04:13:32;10.40;99.90
15556;DHT22;7879;48.660;9.116;2022-09-13T04:16:03;10.40;99.90
15556;DHT22;7879;48.660;9.116;2022-09-13T04:18:30;10.30;99.90
15556;DHT22;7879;48.660;9.116;2022-09-13T04:20:59;10.20;99.90
15556;DHT22;7879;48.660;9.116;2022-09-13T04:23:27;10.20;99.90
15556;DHT22;7879;48.660;9.116;2022-09-13T04:25:59;10.30;99.90
15556;DHT22;7879;48.660;9.116;2022-09-13T04:28:26;10.30;99.90
15556;DHT22;7879;48.660;9.116;2022-09-13T04:30:53;10.30;99.90
15556;DHT22;7879;48.660;9.116;2022-09-13T04:33:20;10.30;99.90
15556;DHT22;7879;48.660;9.116;2022-09-13T04:35:47;10.30;99.90
15556;DHT22;7879;48.660;9.116;2022-09-13T04:38:13;10.20;99.90
15556;DHT22;7879;48.660;9.116;2022-09-13T04:40:40;10.20;99.90
15556;DHT22;7879;48.660;9.116;2022-09-13T04:43:07;10.20;99.90
15556;DHT22;7879;48.660;9.116;2022-09-13T04:45:33;10.20;99.90
15556;DHT22;7879;48.660;9.116;2022-09-13T04:48:01;10.20;99.90
15556;DHT22;7879;48.660;9.116;2022-09-13T04:50:28;10.30;99.90
15556;DHT22;7879;48.660;9.116;2022-09-13T04:52:56;10.30;99.90
15556;DHT22;7879;48.660;9.116;2022-09-13T04:55:23;10.30;99.90
15556;DHT22;7879;48.660;9.116;2022-09-13T04:57:54;10.40;99.90
15556;DHT22;7879;48.660;9.116;2022-09-13T05:00:22;10.50;99.90
15556;DHT22;7879;48.660;9.116;2022-09-13T05:02:54;10.50;99.90
15556;DHT22;7879;48.660;9.116;2022-09-13T05:05:22;10.40;99.90
15556;DHT22;7879;48.660;9.116;2022-09-13T05:07:51;10.50;99.90
15556;DHT22;7879;48.660;9.116;2022-09-13T05:10:18;10.50;99.90
15556;DHT22;7879;48.660;9.116;2022-09-13T05:12:45;10.50;99.90
15556;DHT22;7879;48.660;9.116;2022-09-13T05:15:12;10.50;99.90
15556;DHT22;7879;48.660;9.116;2022-09-13T05:17:38;10.50;99.90
15556;DHT22;7879;48.660;9.116;2022-09-13T05:20:06;10.50;99.90
15556;DHT22;7879;48.660;9.116;2022-09-13T05:22:32;10.50;99.90
15556;DHT22;7879;48.660;9.116;2022-09-13T05:24:59;10.50;99.90
15556;DHT22;7879;48.660;9.116;2022-09-13T05:27:26;10.50;99.90
15556;DHT22;7879;48.660;9.116;2022-09-13T05:29:52;10.50;99.90
15556;DHT22;7879;48.660;9.116;2022-09-13T05:32:19;10.50;99.90
15556;DHT22;7879;48.660;9.116;2022-09-13T05:34:46;10.50;99.90
15556;DHT22;7879;48.660;9.116;2022-09-13T05:37:13;10.50;99.90
15556;DHT22;7879;48.660;9.116;2022-09-13T05:39:39;10.50;99.90
15556;DHT22;7879;48.660;9.116;2022-09-13T05:42:26;10.50;99.90
15556;DHT22;7879;48.660;9.116;2022-09-13T05:44:53;10.50;99.90
15556;DHT22;7879;48.660;9.116;2022-09-13T05:47:19;10.50;99.90
15556;DHT22;7879;48.660;9.116;2022-09-13T05:49:46;10.60;99.90
15556;DHT22;7879;48.660;9.116;2022-09-13T05:52:33;10.50;99.90
15556;DHT22;7879;48.660;9.116;2022-09-13T05:55:00;10.50;99.90
15556;DHT22;7879;48.660;9.116;2022-09-13T05:57:26;10.50;99.90
15556;DHT22;7879;48.660;9.116;2022-09-13T05:59:53;10.60;99.90
15556;DHT22;7879;48.660;9.116;2022-09-13T06:02:20;10.70;99.90
15556;DHT22;7879;48.660;9.116;2022-09-13T06:04:47;10.70;99.90
15556;DHT22;7879;48.660;9.116;2022-09-13T06:07:16;10.60;99.90
15556;DHT22;7879;48.660;9.116;2022-09-13T06:09:43;10.70;99.90
15556;DHT22;7879;48.660;9.116;2022-09-13T06:12:10;10.70;99.90
15556;DHT22;7879;48.660;9.116;2022-09-13T06:14:37;10.80;99.90
15556;DHT22;7879;48.660;9.116;2022-09-13T06:17:05;10.80;99.90
15556;DHT22;7879;48.660;9.116;2022-09-13T06:19:31;10.90;99.90
15556;DHT22;7879;48.660;9.116;2022-09-13T06:21:58;11.00;99.90
15556;DHT22;7879;48.660;9.116;2022-09-13T06:24:25;11.00;99.90
15556;DHT22;7879;48.660;9.116;2022-09-13T06:26:52;11.10;99.90
15556;DHT22;7879;48.660;9.116;2022-09-13T06:29:19;11.10;99.90
15556;DHT22;7879;48.660;9.116;2022-09-13T06:31:46;11.20;99.90
15556;DHT22;7879;48.660;9.116;2022-09-13T06:34:13;11.10;99.90
15556;DHT22;7879;48.660;9.116;2022-09-13T06:36:41;11.20;99.90
15556;DHT22;7879;48.660;9.116;2022-09-13T06:39:08;11.20;99.90
15556;DHT22;7879;48.660;9.116;2022-09-13T06:41:35;11.20;99.90
15556;DHT22;7879;48.660;9.116;2022-09-13T06:44:03;11.20;99.90
15556;DHT22;7879;48.660;9.116;2022-09-13T06:46:31;11.20;99.90
15556;DHT22;7879;48.660;9.116;2022-09-13T06:49:03;11.30;99.90
15556;DHT22;7879;48.660;9.116;2022-09-13T06:51:32;11.40;99.90
15556;DHT22;7879;48.660;9.116;2022-09-13T06:54:00;11.50;99.90
15556;DHT22;7879;48.660;9.116;2022-09-13T06:56:32;11.60;99.90
15556;DHT22;7879;48.660;9.116;2022-09-13T06:59:02;11.80;99.90
15556;DHT22;7879;48.660;9.116;2022-09-13T07:01:35;11.90;99.90
15556;DHT22;7879;48.660;9.116;2022-09-13T07:04:08;12.00;99.90
15556;DHT22;7879;48.660;9.116;2022-09-13T07:06:38;12.20;99.90
15556;DHT22;7879;48.660;9.116;2022-09-13T07:09:07;12.30;99.90
15556;DHT22;7879;48.660;9.116;2022-09-13T07:11:36;12.40;99.90
15556;DHT22;7879;48.660;9.116;2022-09-13T07:14:04;12.50;99.90
15556;DHT22;7879;48.660;9.116;2022-09-13T07:16:38;12.60;99.90
15556;DHT22;7879;48.660;9.116;2022-09-13T07:19:47;12.70;99.90
15556;DHT22;7879;48.660;9.116;2022-09-13T07:22:18;12.80;99.90
15556;DHT22;7879;48.660;9.116;2022-09-13T07:24:45;13.00;99.90
15556;DHT22;7879;48.660;9.116;2022-09-13T07:27:12;13.10;99.90
15556;DHT22;7879;48.660;9.116;2022-09-13T07:29:40;13.20;99.90
15556;DHT22;7879;48.660;9.116;2022-09-13T07:32:07;13.40;99.90
15556;DHT22;7879;48.660;9.116;2022-09-13T07:34:33;13.40;99.90
15556;DHT22;7879;48.660;9.116;2022-09-13T07:37:01;13.50;99.90
15556;DHT22;7879;48.660;9.116;2022-09-13T07:39:27;13.60;99.90
15556;DHT22;7879;48.660;9.116;2022-09-13T07:41:54;13.70;99.90
15556;DHT22;7879;48.660;9.116;2022-09-13T07:44:21;13.80;99.90
15556;DHT22;7879;48.660;9.116;2022-09-13T07:46:48;14.10;99.90
15556;DHT22;7879;48.660;9.116;2022-09-13T07:49:16;14.40;99.90
15556;DHT22;7879;48.660;9.116;2022-09-13T07:51:44;14.60;99.90
15556;DHT22;7879;48.660;9.116;2022-09-13T07:54:16;14.70;99.90
15556;DHT22;7879;48.660;9.116;2022-09-13T07:56:43;14.80;99.90
15556;DHT22;7879;48.660;9.116;2022-09-13T07:59:13;14.90;99.90
15556;DHT22;7879;48.660;9.116;2022-09-13T08:01:46;15.00;99.90
15556;DHT22;7879;48.660;9.116;2022-09-13T08:04:23;15.00;99.90
15556;DHT22;7879;48.660;9.116;2022-09-13T08:06:50;15.10;99.90
15556;DHT22;7879;48.660;9.116;2022-09-13T08:09:17;15.20;99.90
15556;DHT22;7879;48.660;9.116;2022-09-13T08:11:47;15.30;99.90
15556;DHT22;7879;48.660;9.116;2022-09-13T08:14:16;15.40;99.90
15556;DHT22;7879;48.660;9.116;2022-09-13T08:16:43;15.50;99.90
15556;DHT22;7879;48.660;9.116;2022-09-13T08:19:16;15.60;99.90
15556;DHT22;7879;48.660;9.116;2022-09-13T08:21:43;15.70;99.90
15556;DHT22;7879;48.660;9.116;2022-09-13T08:24:16;15.80;99.90
15556;DHT22;7879;48.660;9.116;2022-09-13T08:26:43;15.90;99.90
15556;DHT22;7879;48.660;9.116;2022-09-13T08:29:11;16.00;99.90
15556;DHT22;7879;48.660;9.116;2022-09-13T08:31:38;16.20;99.90
15556;DHT22;7879;48.660;9.116;2022-09-13T08:34:08;16.40;99.90
15556;DHT22;7879;48.660;9.116;2022-09-13T08:36:36;16.40;99.90
15556;DHT22;7879;48.660;9.116;2022-09-13T08:39:03;16.50;99.90
15556;DHT22;7879;48.660;9.116;2022-09-13T08:41:50;16.70;99.90
15556;DHT22;7879;48.660;9.116;2022-09-13T08:44:27;16.90;99.90
15556;DHT22;7879;48.660;9.116;2022-09-13T08:49:49;17.10;99.90
15556;DHT22;7879;48.660;9.116;2022-09-13T08:58:47;17.50;99.90
15556;DHT22;7879;48.660;9.116;2022-09-13T09:07:07;18.40;99.90
15556;DHT22;7879;48.660;9.116;2022-09-13T09:09:42;18.70;99.90
15556;DHT22;7879;48.660;9.116;2022-09-13T09:12:14;18.90;99.90
15556;DHT22;7879;48.660;9.116;2022-09-13T09:14:50;19.30;99.90
15556;DHT22;7879;48.660;9.116;2022-09-13T09:17:28;19.50;99.90
15556;DHT22;7879;48.660;9.116;2022-09-13T09:20:08;19.70;99.90
15556;DHT22;7879;48.660;9.116;2022-09-13T09:22:43;19.90;99.90
15556;DHT22;7879;48.660;9.116;2022-09-13T09:25:10;19.90;99.90
15556;DHT22;7879;48.660;9.116;2022-09-13T09:27:37;19.80;99.90
15556;DHT22;7879;48.660;9.116;2022-09-13T09:30:05;19.90;99.90
15556;DHT22;7879;48.660;9.116;2022-09-13T09:40:46;21.10;99.90
15556;DHT22;7879;48.660;9.116;2022-09-13T09:43:19;21.20;99.90
15556;DHT22;7879;48.660;9.116;2022-09-13T09:45:49;21.40;99.90
15556;DHT22;7879;48.660;9.116;2022-09-13T09:48:21;21.50;99.90
15556;DHT22;7879;48.660;9.116;2022-09-13T09:50:53;21.50;99.90
15556;DHT22;7879;48.660;9.116;2022-09-13T09:53:38;21.30;99.90
15556;DHT22;7879;48.660;9.116;2022-09-13T09:56:21;21.20;99.90
15556;DHT22;7879;48.660;9.116;2022-09-13T09:58:50;21.10;99.90
15556;DHT22;7879;48.660;9.116;2022-09-13T10:03:53;21.10;99.90
15556;DHT22;7879;48.660;9.116;2022-09-13T10:06:25;21.50;99.90
15556;DHT22;7879;48.660;9.116;2022-09-13T10:08:59;21.90;99.90
15556;DHT22;7879;48.660;9.116;2022-09-13T10:14:27;22.20;99.90
15556;DHT22;7879;48.660;9.116;2022-09-13T10:19:33;22.60;99.90
15556;DHT22;7879;48.660;9.116;2022-09-13T10:22:07;22.90;99.90
15556;DHT22;7879;48.660;9.116;2022-09-13T10:24:35;23.00;99.90
15556;DHT22;7879;48.660;9.116;2022-09-13T10:27:04;23.10;99.90
15556;DHT22;7879;48.660;9.116;2022-09-13T10:29:32;23.20;99.90
15556;DHT22;7879;48.660;9.116;2022-09-13T10:34:42;23.70;99.90
15556;DHT22;7879;48.660;9.116;2022-09-13T10:37:17;24.00;99.90
15556;DHT22;7879;48.660;9.116;2022-09-13T10:39:54;24.40;99.90
15556;DHT22;7879;48.660;9.116;2022-09-13T10:42:23;24.70;97.80
15556;DHT22;7879;48.660;9.116;2022-09-13T10:44:57;24.80;98.10
15556;DHT22;7879;48.660;9.116;2022-09-13T10:47:45;24.80;98.10
15556;DHT22;7879;48.660;9.116;2022-09-13T10:50:21;25.10;97.50
15556;DHT22;7879;48.660;9.116;2022-09-13T10:52:53;25.40;97.40
15556;DHT22;7879;48.660;9.116;2022-09-13T10:55:33;25.60;96.70
15556;DHT22;7879;48.660;9.116;2022-09-13T11:06:01;25.80;94.40
15556;DHT22;7879;48.660;9.116;2022-09-13T11:09:04;25.70;93.20
15556;DHT22;7879;48.660;9.116;2022-09-13T11:25:51;26.20;91.10
15556;DHT22;7879;48.660;9.116;2022-09-13T11:31:34;26.20;91.00
15556;DHT22;7879;48.660;9.116;2022-09-13T11:34:16;26.10;91.90
15556;DHT22;7879;48.660;9.116;2022-09-13T11:37:48;26.00;91.40
15556;DHT22;7879;48.660;9.116;2022-09-13T11:40:17;26.00;91.40
15556;DHT22;7879;48.660;9.116;2022-09-13T11:43:38;26.10;91.70
15556;DHT22;7879;48.660;9.116;2022-09-13T11:48:21;26.00;90.30
15556;DHT22;7879;48.660;9.116;2022-09-13T11:56:22;25.90;90.10
15556;DHT22;7879;48.660;9.116;2022-09-13T11:58:58;25.80;90.00
15556;DHT22;7879;48.660;9.116;2022-09-13T12:01:31;25.90;90.00
15556;DHT22;7879;48.660;9.116;2022-09-13T12:04:24;25.90;88.90
15556;DHT22;7879;48.660;9.116;2022-09-13T12:07:05;25.90;88.30
15556;DHT22;7879;48.660;9.116;2022-09-13T12:09:39;26.00;88.40
15556;DHT22;7879;48.660;9.116;2022-09-13T12:12:09;25.90;89.00
15556;DHT22;7879;48.660;9.116;2022-09-13T12:14:53;25.90;88.00
15556;DHT22;7879;48.660;9.116;2022-09-13T12:17:46;25.80;86.30
15556;DHT22;7879;48.660;9.116;2022-09-13T12:20:35;25.70;88.00
15556;DHT22;7879;48.660;9.116;2022-09-13T12:23:06;25.60;82.20
15556;DHT22;7879;48.660;9.116;2022-09-13T12:26:08;25.60;80.50
15556;DHT22;7879;48.660;9.116;2022-09-13T12:28:43;25.60;79.80
15556;DHT22;7879;48.660;9.116;2022-09-13T12:31:17;25.60;81.10
15556;DHT22;7879;48.660;9.116;2022-09-13T12:33:46;25.60;81.80
15556;DHT22;7879;48.660;9.116;2022-09-13T12:39:25;25.80;79.70
15556;DHT22;7879;48.660;9.116;2022-09-13T12:42:05;25.70;80.40
15556;DHT22;7879;48.660;9.116;2022-09-13T13:02:23;26.20;83.30
15556;DHT22;7879;48.660;9.116;2022-09-13T13:04:53;26.20;83.50
15556;DHT22;7879;48.660;9.116;2022-09-13T13:07:23;26.20;83.70
15556;DHT22;7879;48.660;9.116;2022-09-13T13:09:52;26.20;83.60
15556;DHT22;7879;48.660;9.116;2022-09-13T13:12:37;26.20;84.90
15556;DHT22;7879;48.660;9.116;2022-09-13T13:17:56;26.20;83.60
15556;DHT22;7879;48.660;9.116;2022-09-13T13:34:02;26.20;80.30
15556;DHT22;7879;48.660;9.116;2022-09-13T13:42:23;26.20;82.00
15556;DHT22;7879;48.660;9.116;2022-09-13T13:58:03;26.20;
15556;DHT22;7879;48.660;9.116;2022-09-13T14:00:35;26.20;83.90
15556;DHT22;7879;48.660;9.116;2022-09-13T14:03:46;26.20;84.20
15556;DHT22;7879;48.660;9.116;2022-09-13T14:09:19;26.30;80.60
15556;DHT22;7879;48.660;9.116;2022-09-13T14:15:31;26.50;79.30
15556;DHT22;7879;48.660;9.116;2022-09-13T14:20:59;26.40;79.20
15556;DHT22;7879;48.660;9.116;2022-09-13T14:23:27;26.40;75.20
15556;DHT22;7879;48.660;9.116;2022-09-13T14:25:59;26.50;76.70
15556;DHT22;7879;48.660;9.116;2022-09-13T14:28:28;26.50;74.80
15556;DHT22;7879;48.660;9.116;2022-09-13T14:30:58;26.50;72.50
15556;DHT22;7879;48.660;9.116;2022-09-13T14:33:31;26.50;70.70
15556;DHT22;7879;48.660;9.116;2022-09-13T14:36:05;26.50;71.90
15556;DHT22;7879;48.660;9.116;2022-09-13T14:38:34;26.50;67.90
15556;DHT22;7879;48.660;9.116;2022-09-13T14:41:19;26.50;69.80
15556;DHT22;7879;48.660;9.116;2022-09-13T14:43:48;26.50;70.40
15556;DHT22;7879;48.660;9.116;2022-09-13T14:46:26;26.50;69.40
15556;DHT22;7879;48.660;9.116;2022-09-13T14:49:14;26.50;68.70
15556;DHT22;7879;48.660;9.116;2022-09-13T14:51:51;26.50;68.70
15556;DHT22;7879;48.660;9.116;2022-09-13T14:54:35;26.40;67.30
15556;DHT22;7879;48.660;9.116;2022-09-13T14:57:04;26.40;68.40
15556;DHT22;7879;48.660;9.116;2022-09-13T14:59:36;26.40;66.20
15556;DHT22;7879;48.660;9.116;2022-09-13T15:02:24;26.30;66.90
15556;DHT22;7879;48.660;9.116;2022-09-13T15:04:57;26.30;66.80
15556;DHT22;7879;48.660;9.116;2022-09-13T15:07:30;26.20;64.80
15556;DHT22;7879;48.660;9.116;2022-09-13T15:12:50;26.20;64.60
15556;DHT22;7879;48.660;9.116;2022-09-13T15:17:51;26.20;66.10
15556;DHT22;7879;48.660;9.116;2022-09-13T15:20:19;26.20;64.40
15556;DHT22;7879;48.660;9.116;2022-09-13T15:22:47;26.10;65.60
15556;DHT22;7879;48.660;9.116;2022-09-13T15:25:26;26.20;65.90
15556;DHT22;7879;48.660;9.116;2022-09-13T15:27:54;26.20;67.50
15556;DHT22;7879;48.660;9.116;2022-09-13T15:30:29;26.20;68.40
15556;DHT22;7879;48.660;9.116;2022-09-13T15:35:39;26.10;68.10
15556;DHT22;7879;48.660;9.116;2022-09-13T15:41:18;26.00;68.70
15556;DHT22;7879;48.660;9.116;2022-09-13T15:43:43;26.00;67.80
15556;DHT22;7879;48.660;9.116;2022-09-13T15:46:15;26.00;68.80
15556;DHT22;7879;48.660;9.116;2022-09-13T15:48:54;26.00;70.10
15556;DHT22;7879;48.660;9.116;2022-09-13T15:51:21;26.00;70.70
15556;DHT22;7879;48.660;9.116;2022-09-13T15:53:49;26.00;71.30
15556;DHT22;7879;48.660;9.116;2022-09-13T15:56:29;26.00;71.00
15556;DHT22;7879;48.660;9.116;2022-09-13T15:58:57;25.90;71.70
15556;DHT22;7879;48.660;9.116;2022-09-13T16:01:24;25.90;72.00
15556;DHT22;7879;48.660;9.116;2022-09-13T16:03:53;25.90;72.10
15556;DHT22;7879;48.660;9.116;2022-09-13T16:06:20;25.90;72.40
15556;DHT22;7879;48.660;9.116;2022-09-13T16:08:50;25.80;72.60
15556;DHT22;7879;48.660;9.116;2022-09-13T16:11:16;25.70;73.00
15556;DHT22;7879;48.660;9.116;2022-09-13T16:13:43;25.70;73.70
15556;DHT22;7879;48.660;9.116;2022-09-13T16:16:12;25.70;75.10
15556;DHT22;7879;48.660;9.116;2022-09-13T16:18:40;25.60;75.60
15556;DHT22;7879;48.660;9.116;2022-09-13T16:21:06;25.60;76.00
15556;DHT22;7879;48.660;9.116;2022-09-13T16:23:33;25.50;76.70
15556;DHT22;7879;48.660;9.116;2022-09-13T16:26:00;25.50;78.00
15556;DHT22;7879;48.660;9.116;2022-09-13T16:28:27;25.40;78.80
15556;DHT22;7879;48.660;9.116;2022-09-13T16:30:54;25.40;84.60
15556;DHT22;7879;48.660;9.116;2022-09-13T16:33:21;25.20;90.70
15556;DHT22;7879;48.660;9.116;2022-09-13T16:35:48;25.10;91.50
15556;DHT22;7879;48.660;9.116;2022-09-13T16:38:14;25.00;92.50
15556;DHT22;7879;48.660;9.116;2022-09-13T16:40:42;24.90;93.40
15556;DHT22;7879;48.660;9.116;2022-09-13T16:43:10;24.80;93.40
15556;DHT22;7879;48.660;9.116;2022-09-13T16:45:39;24.80;94.00
15556;DHT22;7879;48.660;9.116;2022-09-13T16:48:07;24.70;94.80
15556;DHT22;7879;48.660;9.116;2022-09-13T16:50:37;24.80;95.20
15556;DHT22;7879;48.660;9.116;2022-09-13T16:53:04;24.70;95.30
15556;DHT22;7879;48.660;9.116;2022-09-13T16:55:31;24.70;95.90
15556;DHT22;7879;48.660;9.116;2022-09-13T16:57:58;24.70;96.40
15556;DHT22;7879;48.660;9.116;2022-09-13T17:00:24;24.70;96.60
15556;DHT22;7879;48.660;9.116;2022-09-13T17:02:55;24.60;97.10
15556;DHT22;7879;48.660;9.116;2022-09-13T17:05:22;24.50;97.10
15556;DHT22;7879;48.660;9.116;2022-09-13T17:07:50;24.50;96.80
15556;DHT22;7879;48.660;9.116;2022-09-13T17:10:19;24.40;97.20
15556;DHT22;7879;48.660;9.116;2022-09-13T17:12:46;24.30;97.60
15556;DHT22;7879;48.660;9.116;2022-09-13T17:15:13;24.20;97.90
15556;DHT22;7879;48.660;9.116;2022-09-13T17:17:40;24.20;98.30
15556;DHT22;7879;48.660;9.116;2022-09-13T17:20:08;24.10;98.30
15556;DHT22;7879;48.660;9.116;2022-09-13T17:22:36;24.00;98.50
15556;DHT22;7879;48.660;9.116;2022-09-13T17:25:05;23.90;99.00
15556;DHT22;7879;48.660;9.116;2022-09-13T17:27:33;23.80;99.90
15556;DHT22;7879;48.660;9.116;2022-09-13T17:30:00;23.70;99.90
15556;DHT22;7879;48.660;9.116;2022-09-13T17:32:28;23.60;99.90
15556;DHT22;7879;48.660;9.116;2022-09-13T17:34:54;23.60;99.90
15556;DHT22;7879;48.660;9.116;2022-09-13T17:37:21;23.60;99.90
15556;DHT22;7879;48.660;9.116;2022-09-13T17:39:48;23.50;99.90
15556;DHT22;7879;48.660;9.116;2022-09-13T17:42:14;23.40;99.90
15556;DHT22;7879;48.660;9.116;2022-09-13T17:44:46;23.30;99.90
15556;DHT22;7879;48.660;9.116;2022-09-13T17:47:13;23.30;99.90
15556;DHT22;7879;48.660;9.116;2022-09-13T17:49:40;23.40;99.90
15556;DHT22;7879;48.660;9.116;2022-09-13T17:52:07;23.30;99.90
15556;DHT22;7879;48.660;9.116;2022-09-13T17:54:34;23.20;99.90
15556;DHT22;7879;48.660;9.116;2022-09-13T17:57:01;23.10;99.90
15556;DHT22;7879;48.660;9.116;2022-09-13T17:59:28;23.00;99.90
15556;DHT22;7879;48.660;9.116;2022-09-13T18:01:57;23.00;99.90
15556;DHT22;7879;48.660;9.116;2022-09-13T18:04:26;22.80;99.90
15556;DHT22;7879;48.660;9.116;2022-09-13T18:06:53;22.80;99.90
15556;DHT22;7879;48.660;9.116;2022-09-13T18:09:20;22.70;99.90
15556;DHT22;7879;48.660;9.116;2022-09-13T18:11:48;22.60;99.90
15556;DHT22;7879;48.660;9.116;2022-09-13T18:14:16;22.70;99.90
15556;DHT22;7879;48.660;9.116;2022-09-13T18:16:44;22.60;99.90
15556;DHT22;7879;48.660;9.116;2022-09-13T18:19:12;22.50;99.90
15556;DHT22;7879;48.660;9.116;2022-09-13T18:21:39;22.40;99.90
15556;DHT22;7879;48.660;9.116;2022-09-13T18:24:06;22.30;99.90
15556;DHT22;7879;48.660;9.116;2022-09-13T18:26:33;22.20;99.90
15556;DHT22;7879;48.660;9.116;2022-09-13T18:29:03;22.10;99.90
15556;DHT22;7879;48.660;9.116;2022-09-13T18:31:31;22.00;99.90
15556;DHT22;7879;48.660;9.116;2022-09-13T18:34:04;22.00;99.90
15556;DHT22;7879;48.660;9.116;2022-09-13T18:36:32;21.90;99.90
15556;DHT22;7879;48.660;9.116;2022-09-13T18:38:59;21.80;99.90
15556;DHT22;7879;48.660;9.116;2022-09-13T18:41:35;21.70;99.90
15556;DHT22;7879;48.660;9.116;2022-09-13T18:44:03;21.60;99.90
15556;DHT22;7879;48.660;9.116;2022-09-13T18:46:33;21.60;99.90
15556;DHT22;7879;48.660;9.116;2022-09-13T18:49:01;21.50;99.90
15556;DHT22;7879;48.660;9.116;2022-09-13T18:51:31;21.50;99.90
15556;DHT22;7879;48.660;9.116;2022-09-13T18:53:58;21.50;99.90
15556;DHT22;7879;48.660;9.116;2022-09-13T18:56:27;21.40;99.90
15556;DHT22;7879;48.660;9.116;2022-09-13T18:58:54;21.40;99.90
15556;DHT22;7879;48.660;9.116;2022-09-13T19:01:24;21.30;99.90
15556;DHT22;7879;48.660;9.116;2022-09-13T19:03:54;21.30;99.90
15556;DHT22;7879;48.660;9.116;2022-09-13T19:06:33;21.20;99.90
15556;DHT22;7879;48.660;9.116;2022-09-13T19:09:01;21.20;99.90
15556;DHT22;7879;48.660;9.116;2022-09-13T19:11:34;21.20;99.90
15556;DHT22;7879;48.660;9.116;2022-09-13T19:14:14;21.20;99.90